sensor_id;sensor_type;location;lat;lon;timestamp;P1;durP1;ratioP1;P2;durP2;ratioP2
44995;SDS011;30729;49.486;10.792;2023-03-04T00:02:06;17.90;;;8.07;;
44995;SDS011;30729;49.486;10.792;2023-03-04T00:05:31;17.30;;;8.05;;
44995;SDS011;30729;49.486;10.792;2023-03-04T00:08:55;20.17;;;7.47;;
44995;SDS011;30729;49.486;10.792;2023-03-04T00:12:18;17.05;;;7.47;;
44995;SDS011;30729;49.486;10.792;2023-03-04T00:15:46;16.05;;;8.32;;
44995;SDS011;30729;49.486;10.792;2023-03-04T00:19:10;23.00;;;8.75;;
44995;SDS011;30729;49.486;10.792;2023-03-04T00:22:34;17.30;;;7.18;;
44995;SDS011;30729;49.486;10.792;2023-03-04T00:25:58;16.10;;;6.95;;
44995;SDS011;30729;49.486;10.792;2023-03-04T00:29:22;18.70;;;8.18;;
44995;SDS011;30729;49.486;10.792;2023-03-04T00:32:46;18.08;;;7.63;;
44995;SDS011;30729;49.486;10.792;2023-03-04T00:36:10;17.52;;;7.15;;
44995;SDS011;30729;49.486;10.792;2023-03-04T00:39:33;18.77;;;7.80;;
44995;SDS011;30729;49.486;10.792;2023-03-04T00:42:57;16.15;;;7.05;;
44995;SDS011;30729;49.486;10.792;2023-03-04T00:46:21;16.45;;;7.03;;
44995;SDS011;30729;49.486;10.792;2023-03-04T00:49:45;15.35;;;7.28;;
44995;SDS011;30729;49.486;10.792;2023-03-04T00:53:09;15.32;;;6.95;;
44995;SDS011;30729;49.486;10.792;2023-03-04T00:56:33;16.90;;;7.32;;
44995;SDS011;30729;49.486;10.792;2023-03-04T00:59:58;18.52;;;7.88;;
44995;SDS011;30729;49.486;10.792;2023-03-04T01:03:21;15.02;;;7.07;;
44995;SDS011;30729;49.486;10.792;2023-03-04T01:06:45;18.73;;;7.32;;
44995;SDS011;30729;49.486;10.792;2023-03-04T01:10:10;17.95;;;7.45;;
44995;SDS011;30729;49.486;10.792;2023-03-04T01:13:35;16.15;;;6.43;;
44995;SDS011;30729;49.486;10.792;2023-03-04T01:16:59;18.98;;;7.85;;
44995;SDS011;30729;49.486;10.792;2023-03-04T01:20:23;20.20;;;7.75;;
44995;SDS011;30729;49.486;10.792;2023-03-04T01:23:47;16.38;;;7.05;;
44995;SDS011;30729;49.486;10.792;2023-03-04T01:27:11;16.40;;;6.95;;
44995;SDS011;30729;49.486;10.792;2023-03-04T01:30:35;20.15;;;8.18;;
44995;SDS011;30729;49.486;10.792;2023-03-04T01:33:59;16.02;;;7.38;;
44995;SDS011;30729;49.486;10.792;2023-03-04T01:37:23;20.10;;;7.68;;
44995;SDS011;30729;49.486;10.792;2023-03-04T01:40:47;20.77;;;8.10;;
44995;SDS011;30729;49.486;10.792;2023-03-04T01:44:11;17.05;;;6.80;;
44995;SDS011;30729;49.486;10.792;2023-03-04T01:47:38;14.77;;;6.38;;
44995;SDS011;30729;49.486;10.792;2023-03-04T01:51:03;19.02;;;7.90;;
44995;SDS011;30729;49.486;10.792;2023-03-04T01:54:28;16.67;;;7.63;;
44995;SDS011;30729;49.486;10.792;2023-03-04T01:57:52;16.90;;;7.35;;
44995;SDS011;30729;49.486;10.792;2023-03-04T02:01:31;16.25;;;6.90;;
44995;SDS011;30729;49.486;10.792;2023-03-04T02:04:55;19.20;;;7.10;;
44995;SDS011;30729;49.486;10.792;2023-03-04T02:08:20;16.50;;;7.00;;
44995;SDS011;30729;49.486;10.792;2023-03-04T02:11:45;17.92;;;7.07;;
44995;SDS011;30729;49.486;10.792;2023-03-04T02:15:09;15.77;;;7.45;;
44995;SDS011;30729;49.486;10.792;2023-03-04T02:18:33;17.85;;;6.85;;
44995;SDS011;30729;49.486;10.792;2023-03-04T02:22:03;19.00;;;7.95;;
44995;SDS011;30729;49.486;10.792;2023-03-04T02:25:30;15.43;;;7.47;;
44995;SDS011;30729;49.486;10.792;2023-03-04T02:28:57;17.70;;;9.18;;
44995;SDS011;30729;49.486;10.792;2023-03-04T02:32:22;17.48;;;7.47;;
44995;SDS011;30729;49.486;10.792;2023-03-04T02:35:45;17.73;;;7.60;;
44995;SDS011;30729;49.486;10.792;2023-03-04T02:39:12;18.75;;;8.20;;
44995;SDS011;30729;49.486;10.792;2023-03-04T02:42:43;15.35;;;7.18;;
44995;SDS011;30729;49.486;10.792;2023-03-04T02:46:09;16.88;;;6.95;;
44995;SDS011;30729;49.486;10.792;2023-03-04T02:49:36;18.35;;;7.47;;
44995;SDS011;30729;49.486;10.792;2023-03-04T02:53:03;18.98;;;6.88;;
44995;SDS011;30729;49.486;10.792;2023-03-04T02:56:27;21.55;;;8.70;;
44995;SDS011;30729;49.486;10.792;2023-03-04T02:59:51;21.27;;;9.10;;
44995;SDS011;30729;49.486;10.792;2023-03-04T03:03:15;19.05;;;8.15;;
44995;SDS011;30729;49.486;10.792;2023-03-04T03:06:40;18.77;;;8.35;;
44995;SDS011;30729;49.486;10.792;2023-03-04T03:10:04;15.65;;;7.65;;
44995;SDS011;30729;49.486;10.792;2023-03-04T03:13:28;17.83;;;8.38;;
44995;SDS011;30729;49.486;10.792;2023-03-04T03:16:52;16.15;;;7.28;;
44995;SDS011;30729;49.486;10.792;2023-03-04T03:20:16;18.35;;;8.00;;
44995;SDS011;30729;49.486;10.792;2023-03-04T03:23:40;18.88;;;7.45;;
44995;SDS011;30729;49.486;10.792;2023-03-04T03:27:12;18.13;;;7.78;;
44995;SDS011;30729;49.486;10.792;2023-03-04T03:30:36;19.67;;;7.68;;
44995;SDS011;30729;49.486;10.792;2023-03-04T03:34:00;18.02;;;7.63;;
44995;SDS011;30729;49.486;10.792;2023-03-04T03:37:23;15.90;;;7.22;;
44995;SDS011;30729;49.486;10.792;2023-03-04T03:40:47;16.80;;;7.50;;
44995;SDS011;30729;49.486;10.792;2023-03-04T03:44:11;19.23;;;8.18;;
44995;SDS011;30729;49.486;10.792;2023-03-04T03:47:36;18.25;;;7.60;;
44995;SDS011;30729;49.486;10.792;2023-03-04T03:51:00;17.98;;;7.88;;
44995;SDS011;30729;49.486;10.792;2023-03-04T03:54:24;16.55;;;8.00;;
44995;SDS011;30729;49.486;10.792;2023-03-04T03:57:48;16.65;;;7.63;;
44995;SDS011;30729;49.486;10.792;2023-03-04T04:01:12;20.02;;;7.88;;
44995;SDS011;30729;49.486;10.792;2023-03-04T04:04:36;18.80;;;8.20;;
44995;SDS011;30729;49.486;10.792;2023-03-04T04:07:59;18.88;;;8.52;;
44995;SDS011;30729;49.486;10.792;2023-03-04T04:11:23;17.17;;;7.18;;
44995;SDS011;30729;49.486;10.792;2023-03-04T04:14:47;18.90;;;7.55;;
44995;SDS011;30729;49.486;10.792;2023-03-04T04:18:11;18.38;;;7.82;;
44995;SDS011;30729;49.486;10.792;2023-03-04T04:21:43;16.40;;;7.32;;
44995;SDS011;30729;49.486;10.792;2023-03-04T04:25:07;16.38;;;7.38;;
44995;SDS011;30729;49.486;10.792;2023-03-04T04:28:31;19.27;;;8.50;;
44995;SDS011;30729;49.486;10.792;2023-03-04T04:31:55;18.27;;;7.95;;
44995;SDS011;30729;49.486;10.792;2023-03-04T04:35:19;23.48;;;9.43;;
44995;SDS011;30729;49.486;10.792;2023-03-04T04:38:43;17.33;;;7.82;;
44995;SDS011;30729;49.486;10.792;2023-03-04T04:42:08;16.20;;;7.30;;
44995;SDS011;30729;49.486;10.792;2023-03-04T04:45:32;25.08;;;9.10;;
44995;SDS011;30729;49.486;10.792;2023-03-04T04:48:56;19.13;;;9.05;;
44995;SDS011;30729;49.486;10.792;2023-03-04T04:52:20;22.75;;;8.60;;
44995;SDS011;30729;49.486;10.792;2023-03-04T04:55:44;18.20;;;8.30;;
44995;SDS011;30729;49.486;10.792;2023-03-04T04:59:08;23.33;;;9.20;;
44995;SDS011;30729;49.486;10.792;2023-03-04T05:02:34;19.93;;;8.97;;
44995;SDS011;30729;49.486;10.792;2023-03-04T05:05:59;22.65;;;9.02;;
44995;SDS011;30729;49.486;10.792;2023-03-04T05:09:23;16.35;;;7.72;;
44995;SDS011;30729;49.486;10.792;2023-03-04T05:12:46;19.65;;;7.32;;
44995;SDS011;30729;49.486;10.792;2023-03-04T05:16:11;21.15;;;6.85;;
44995;SDS011;30729;49.486;10.792;2023-03-04T05:19:35;23.58;;;8.88;;
44995;SDS011;30729;49.486;10.792;2023-03-04T05:22:59;19.40;;;7.85;;
44995;SDS011;30729;49.486;10.792;2023-03-04T05:26:23;18.25;;;7.63;;
44995;SDS011;30729;49.486;10.792;2023-03-04T05:29:47;21.95;;;7.97;;
44995;SDS011;30729;49.486;10.792;2023-03-04T05:33:12;22.55;;;9.85;;
44995;SDS011;30729;49.486;10.792;2023-03-04T05:36:37;21.50;;;9.40;;
44995;SDS011;30729;49.486;10.792;2023-03-04T05:40:00;23.85;;;8.95;;
44995;SDS011;30729;49.486;10.792;2023-03-04T05:43:26;22.50;;;8.43;;
44995;SDS011;30729;49.486;10.792;2023-03-04T05:46:50;24.95;;;10.20;;
44995;SDS011;30729;49.486;10.792;2023-03-04T05:50:14;28.45;;;10.30;;
44995;SDS011;30729;49.486;10.792;2023-03-04T05:53:39;28.80;;;10.23;;
44995;SDS011;30729;49.486;10.792;2023-03-04T05:57:03;23.73;;;9.48;;
44995;SDS011;30729;49.486;10.792;2023-03-04T06:00:27;26.10;;;10.70;;
44995;SDS011;30729;49.486;10.792;2023-03-04T06:03:51;22.85;;;9.82;;
44995;SDS011;30729;49.486;10.792;2023-03-04T06:07:15;22.95;;;9.52;;
44995;SDS011;30729;49.486;10.792;2023-03-04T06:10:40;23.02;;;9.98;;
44995;SDS011;30729;49.486;10.792;2023-03-04T06:14:04;27.92;;;10.20;;
44995;SDS011;30729;49.486;10.792;2023-03-04T06:17:30;24.42;;;11.43;;
44995;SDS011;30729;49.486;10.792;2023-03-04T06:20:55;26.08;;;10.88;;
44995;SDS011;30729;49.486;10.792;2023-03-04T06:24:19;23.45;;;10.18;;
44995;SDS011;30729;49.486;10.792;2023-03-04T06:27:43;24.45;;;10.15;;
44995;SDS011;30729;49.486;10.792;2023-03-04T06:31:07;22.30;;;9.02;;
44995;SDS011;30729;49.486;10.792;2023-03-04T06:34:31;23.17;;;10.00;;
44995;SDS011;30729;49.486;10.792;2023-03-04T06:37:55;21.80;;;10.57;;
44995;SDS011;30729;49.486;10.792;2023-03-04T06:41:18;26.95;;;10.98;;
44995;SDS011;30729;49.486;10.792;2023-03-04T06:44:43;25.55;;;10.15;;
44995;SDS011;30729;49.486;10.792;2023-03-04T06:48:07;25.33;;;10.63;;
44995;SDS011;30729;49.486;10.792;2023-03-04T06:51:31;26.05;;;11.07;;
44995;SDS011;30729;49.486;10.792;2023-03-04T06:54:55;24.75;;;10.75;;
44995;SDS011;30729;49.486;10.792;2023-03-04T06:58:19;23.63;;;10.27;;
44995;SDS011;30729;49.486;10.792;2023-03-04T07:01:43;24.25;;;11.73;;
44995;SDS011;30729;49.486;10.792;2023-03-04T07:05:07;22.25;;;9.73;;
44995;SDS011;30729;49.486;10.792;2023-03-04T07:11:57;24.15;;;10.52;;
44995;SDS011;30729;49.486;10.792;2023-03-04T07:15:21;23.77;;;10.15;;
44995;SDS011;30729;49.486;10.792;2023-03-04T07:18:47;24.92;;;10.18;;
44995;SDS011;30729;49.486;10.792;2023-03-04T07:22:11;24.27;;;10.80;;
44995;SDS011;30729;49.486;10.792;2023-03-04T07:25:34;28.75;;;11.48;;
44995;SDS011;30729;49.486;10.792;2023-03-04T07:28:59;26.10;;;10.32;;
44995;SDS011;30729;49.486;10.792;2023-03-04T07:32:23;22.58;;;10.88;;
44995;SDS011;30729;49.486;10.792;2023-03-04T07:35:47;23.65;;;11.57;;
44995;SDS011;30729;49.486;10.792;2023-03-04T07:39:11;24.33;;;10.40;;
44995;SDS011;30729;49.486;10.792;2023-03-04T07:42:35;20.77;;;10.35;;
44995;SDS011;30729;49.486;10.792;2023-03-04T07:45:59;26.73;;;10.85;;
44995;SDS011;30729;49.486;10.792;2023-03-04T07:49:24;28.83;;;12.80;;
44995;SDS011;30729;49.486;10.792;2023-03-04T07:52:48;31.30;;;12.02;;
44995;SDS011;30729;49.486;10.792;2023-03-04T07:56:17;27.60;;;11.38;;
44995;SDS011;30729;49.486;10.792;2023-03-04T07:59:41;25.17;;;11.25;;
44995;SDS011;30729;49.486;10.792;2023-03-04T08:03:05;28.65;;;12.35;;
44995;SDS011;30729;49.486;10.792;2023-03-04T08:06:31;21.85;;;10.52;;
44995;SDS011;30729;49.486;10.792;2023-03-04T08:09:55;27.50;;;12.57;;
44995;SDS011;30729;49.486;10.792;2023-03-04T08:13:19;28.75;;;11.52;;
44995;SDS011;30729;49.486;10.792;2023-03-04T08:16:43;25.42;;;11.88;;
44995;SDS011;30729;49.486;10.792;2023-03-04T08:20:07;26.52;;;11.73;;
44995;SDS011;30729;49.486;10.792;2023-03-04T08:23:38;32.45;;;12.98;;
44995;SDS011;30729;49.486;10.792;2023-03-04T08:27:02;25.25;;;11.55;;
44995;SDS011;30729;49.486;10.792;2023-03-04T08:30:26;26.02;;;11.55;;
44995;SDS011;30729;49.486;10.792;2023-03-04T08:33:50;26.27;;;12.23;;
44995;SDS011;30729;49.486;10.792;2023-03-04T08:37:14;26.00;;;12.10;;
44995;SDS011;30729;49.486;10.792;2023-03-04T08:40:38;26.60;;;10.95;;
44995;SDS011;30729;49.486;10.792;2023-03-04T08:44:02;25.92;;;12.43;;
44995;SDS011;30729;49.486;10.792;2023-03-04T08:47:27;26.33;;;12.93;;
44995;SDS011;30729;49.486;10.792;2023-03-04T08:50:51;25.55;;;12.52;;
44995;SDS011;30729;49.486;10.792;2023-03-04T08:54:15;25.80;;;12.63;;
44995;SDS011;30729;49.486;10.792;2023-03-04T08:57:39;28.73;;;13.32;;
44995;SDS011;30729;49.486;10.792;2023-03-04T09:01:03;27.90;;;11.80;;
44995;SDS011;30729;49.486;10.792;2023-03-04T09:04:27;28.45;;;12.38;;
44995;SDS011;30729;49.486;10.792;2023-03-04T09:07:51;24.00;;;12.20;;
44995;SDS011;30729;49.486;10.792;2023-03-04T09:11:15;26.13;;;12.75;;
44995;SDS011;30729;49.486;10.792;2023-03-04T09:14:39;25.73;;;11.88;;
44995;SDS011;30729;49.486;10.792;2023-03-04T09:18:08;27.85;;;12.20;;
44995;SDS011;30729;49.486;10.792;2023-03-04T09:21:32;25.90;;;12.40;;
44995;SDS011;30729;49.486;10.792;2023-03-04T09:24:56;22.38;;;10.98;;
44995;SDS011;30729;49.486;10.792;2023-03-04T09:28:20;25.85;;;12.45;;
44995;SDS011;30729;49.486;10.792;2023-03-04T09:31:44;21.52;;;10.60;;
44995;SDS011;30729;49.486;10.792;2023-03-04T09:35:08;24.17;;;11.32;;
44995;SDS011;30729;49.486;10.792;2023-03-04T09:38:33;22.85;;;10.38;;
44995;SDS011;30729;49.486;10.792;2023-03-04T09:41:57;25.42;;;11.40;;
44995;SDS011;30729;49.486;10.792;2023-03-04T09:45:31;29.98;;;13.27;;
44995;SDS011;30729;49.486;10.792;2023-03-04T09:48:56;23.30;;;11.43;;
44995;SDS011;30729;49.486;10.792;2023-03-04T09:56:13;24.23;;;12.77;;
44995;SDS011;30729;49.486;10.792;2023-03-04T10:03:28;20.98;;;11.02;;
44995;SDS011;30729;49.486;10.792;2023-03-04T10:07:03;24.75;;;11.50;;
44995;SDS011;30729;49.486;10.792;2023-03-04T10:10:36;25.25;;;12.32;;
44995;SDS011;30729;49.486;10.792;2023-03-04T10:17:49;24.33;;;10.70;;
44995;SDS011;30729;49.486;10.792;2023-03-04T10:24:58;22.42;;;11.80;;
44995;SDS011;30729;49.486;10.792;2023-03-04T10:31:58;23.90;;;10.95;;
44995;SDS011;30729;49.486;10.792;2023-03-04T10:35:23;22.23;;;10.98;;
44995;SDS011;30729;49.486;10.792;2023-03-04T10:42:28;21.85;;;10.65;;
44995;SDS011;30729;49.486;10.792;2023-03-04T10:45:53;31.30;;;12.13;;
44995;SDS011;30729;49.486;10.792;2023-03-04T10:49:19;23.88;;;11.57;;
44995;SDS011;30729;49.486;10.792;2023-03-04T10:52:50;26.13;;;13.07;;
44995;SDS011;30729;49.486;10.792;2023-03-04T11:00:08;24.63;;;11.82;;
44995;SDS011;30729;49.486;10.792;2023-03-04T11:03:49;21.17;;;11.20;;
44995;SDS011;30729;49.486;10.792;2023-03-04T11:07:18;22.20;;;11.00;;
44995;SDS011;30729;49.486;10.792;2023-03-04T11:10:43;21.90;;;11.23;;
44995;SDS011;30729;49.486;10.792;2023-03-04T11:17:52;24.55;;;12.35;;
44995;SDS011;30729;49.486;10.792;2023-03-04T11:21:19;22.08;;;11.77;;
44995;SDS011;30729;49.486;10.792;2023-03-04T11:24:46;23.98;;;12.50;;
44995;SDS011;30729;49.486;10.792;2023-03-04T11:39:00;24.85;;;12.27;;
44995;SDS011;30729;49.486;10.792;2023-03-04T11:56:32;22.17;;;11.77;;
44995;SDS011;30729;49.486;10.792;2023-03-04T12:00:29;27.67;;;13.00;;
44995;SDS011;30729;49.486;10.792;2023-03-04T12:12:22;27.02;;;10.88;;
44995;SDS011;30729;49.486;10.792;2023-03-04T12:15:37;21.15;;;10.10;;
44995;SDS011;30729;49.486;10.792;2023-03-04T12:26:49;21.45;;;11.07;;
44995;SDS011;30729;49.486;10.792;2023-03-04T12:30:33;21.77;;;10.93;;
44995;SDS011;30729;49.486;10.792;2023-03-04T12:45:31;24.48;;;11.73;;
44995;SDS011;30729;49.486;10.792;2023-03-04T12:49:21;21.33;;;10.63;;
44995;SDS011;30729;49.486;10.792;2023-03-04T12:53:20;22.08;;;9.90;;
44995;SDS011;30729;49.486;10.792;2023-03-04T12:57:18;23.80;;;10.90;;
44995;SDS011;30729;49.486;10.792;2023-03-04T13:00:51;23.20;;;10.50;;
44995;SDS011;30729;49.486;10.792;2023-03-04T13:04:52;21.50;;;10.40;;
44995;SDS011;30729;49.486;10.792;2023-03-04T13:19:56;20.45;;;9.57;;
44995;SDS011;30729;49.486;10.792;2023-03-04T13:30:40;20.70;;;9.85;;
44995;SDS011;30729;49.486;10.792;2023-03-04T13:34:45;20.48;;;9.93;;
44995;SDS011;30729;49.486;10.792;2023-03-04T13:49:13;22.70;;;11.65;;
44995;SDS011;30729;49.486;10.792;2023-03-04T13:53:00;20.30;;;9.32;;
44995;SDS011;30729;49.486;10.792;2023-03-04T13:57:16;22.70;;;9.40;;
44995;SDS011;30729;49.486;10.792;2023-03-04T14:00:48;22.08;;;9.70;;
44995;SDS011;30729;49.486;10.792;2023-03-04T14:04:26;20.83;;;10.57;;
44995;SDS011;30729;49.486;10.792;2023-03-04T14:07:50;23.52;;;10.68;;
44995;SDS011;30729;49.486;10.792;2023-03-04T14:14:53;24.10;;;10.43;;
44995;SDS011;30729;49.486;10.792;2023-03-04T14:18:21;24.15;;;9.38;;
44995;SDS011;30729;49.486;10.792;2023-03-04T14:21:57;24.73;;;10.52;;
44995;SDS011;30729;49.486;10.792;2023-03-04T14:25:25;24.80;;;11.45;;
44995;SDS011;30729;49.486;10.792;2023-03-04T14:28:50;24.73;;;11.85;;
44995;SDS011;30729;49.486;10.792;2023-03-04T14:32:22;21.60;;;9.30;;
44995;SDS011;30729;49.486;10.792;2023-03-04T14:35:49;18.77;;;8.38;;
44995;SDS011;30729;49.486;10.792;2023-03-04T14:39:14;22.15;;;8.98;;
44995;SDS011;30729;49.486;10.792;2023-03-04T14:42:44;25.73;;;10.15;;
44995;SDS011;30729;49.486;10.792;2023-03-04T14:46:23;20.00;;;9.93;;
44995;SDS011;30729;49.486;10.792;2023-03-04T14:49:48;17.40;;;8.30;;
44995;SDS011;30729;49.486;10.792;2023-03-04T14:53:14;25.67;;;9.80;;
44995;SDS011;30729;49.486;10.792;2023-03-04T14:56:56;20.17;;;8.98;;
44995;SDS011;30729;49.486;10.792;2023-03-04T15:00:34;18.70;;;9.20;;
44995;SDS011;30729;49.486;10.792;2023-03-04T15:04:09;22.63;;;9.20;;
44995;SDS011;30729;49.486;10.792;2023-03-04T15:07:35;19.65;;;9.20;;
44995;SDS011;30729;49.486;10.792;2023-03-04T15:11:05;19.55;;;8.63;;
44995;SDS011;30729;49.486;10.792;2023-03-04T15:14:50;18.13;;;8.23;;
44995;SDS011;30729;49.486;10.792;2023-03-04T15:18:25;24.33;;;10.13;;
44995;SDS011;30729;49.486;10.792;2023-03-04T15:21:51;18.85;;;9.75;;
44995;SDS011;30729;49.486;10.792;2023-03-04T15:25:26;19.02;;;9.23;;
44995;SDS011;30729;49.486;10.792;2023-03-04T15:28:51;23.70;;;9.65;;
44995;SDS011;30729;49.486;10.792;2023-03-04T15:32:19;21.42;;;10.23;;
44995;SDS011;30729;49.486;10.792;2023-03-04T15:35:47;22.85;;;10.32;;
44995;SDS011;30729;49.486;10.792;2023-03-04T15:39:14;19.25;;;9.02;;
44995;SDS011;30729;49.486;10.792;2023-03-04T15:42:48;25.02;;;9.00;;
44995;SDS011;30729;49.486;10.792;2023-03-04T15:46:13;23.27;;;9.68;;
44995;SDS011;30729;49.486;10.792;2023-03-04T15:49:41;20.85;;;9.75;;
44995;SDS011;30729;49.486;10.792;2023-03-04T15:53:11;19.75;;;8.93;;
44995;SDS011;30729;49.486;10.792;2023-03-04T15:56:38;18.40;;;8.65;;
44995;SDS011;30729;49.486;10.792;2023-03-04T16:00:02;21.98;;;8.32;;
44995;SDS011;30729;49.486;10.792;2023-03-04T16:03:26;21.55;;;8.98;;
44995;SDS011;30729;49.486;10.792;2023-03-04T16:06:50;19.42;;;8.35;;
44995;SDS011;30729;49.486;10.792;2023-03-04T16:13:46;18.98;;;9.05;;
44995;SDS011;30729;49.486;10.792;2023-03-04T16:17:11;24.67;;;10.32;;
44995;SDS011;30729;49.486;10.792;2023-03-04T16:20:36;20.30;;;8.55;;
44995;SDS011;30729;49.486;10.792;2023-03-04T16:24:00;18.30;;;8.07;;
44995;SDS011;30729;49.486;10.792;2023-03-04T16:27:24;20.70;;;9.10;;
44995;SDS011;30729;49.486;10.792;2023-03-04T16:30:48;22.02;;;8.65;;
44995;SDS011;30729;49.486;10.792;2023-03-04T16:34:12;20.00;;;8.55;;
44995;SDS011;30729;49.486;10.792;2023-03-04T16:37:37;31.33;;;11.88;;
44995;SDS011;30729;49.486;10.792;2023-03-04T16:41:01;26.50;;;11.57;;
44995;SDS011;30729;49.486;10.792;2023-03-04T16:44:26;20.70;;;8.27;;
44995;SDS011;30729;49.486;10.792;2023-03-04T16:47:51;15.57;;;7.43;;
44995;SDS011;30729;49.486;10.792;2023-03-04T16:51:16;21.15;;;8.32;;
44995;SDS011;30729;49.486;10.792;2023-03-04T16:54:52;22.33;;;6.70;;
44995;SDS011;30729;49.486;10.792;2023-03-04T16:58:16;14.88;;;6.75;;
44995;SDS011;30729;49.486;10.792;2023-03-04T17:01:41;18.15;;;7.93;;
44995;SDS011;30729;49.486;10.792;2023-03-04T17:05:05;18.92;;;6.93;;
44995;SDS011;30729;49.486;10.792;2023-03-04T17:08:29;21.50;;;8.60;;
44995;SDS011;30729;49.486;10.792;2023-03-04T17:11:53;18.17;;;8.07;;
44995;SDS011;30729;49.486;10.792;2023-03-04T17:15:18;17.52;;;7.93;;
44995;SDS011;30729;49.486;10.792;2023-03-04T17:18:42;18.25;;;7.43;;
44995;SDS011;30729;49.486;10.792;2023-03-04T17:22:06;20.50;;;8.40;;
44995;SDS011;30729;49.486;10.792;2023-03-04T17:25:30;18.23;;;8.02;;
44995;SDS011;30729;49.486;10.792;2023-03-04T17:28:55;15.43;;;7.30;;
44995;SDS011;30729;49.486;10.792;2023-03-04T17:32:19;16.58;;;7.70;;
44995;SDS011;30729;49.486;10.792;2023-03-04T17:35:44;19.17;;;7.18;;
44995;SDS011;30729;49.486;10.792;2023-03-04T17:39:09;17.73;;;6.88;;
44995;SDS011;30729;49.486;10.792;2023-03-04T17:42:39;20.38;;;7.97;;
44995;SDS011;30729;49.486;10.792;2023-03-04T17:46:03;20.70;;;7.25;;
44995;SDS011;30729;49.486;10.792;2023-03-04T17:49:28;24.40;;;7.10;;
44995;SDS011;30729;49.486;10.792;2023-03-04T17:52:52;22.58;;;7.10;;
44995;SDS011;30729;49.486;10.792;2023-03-04T17:56:15;22.45;;;7.60;;
44995;SDS011;30729;49.486;10.792;2023-03-04T17:59:39;19.17;;;7.78;;
44995;SDS011;30729;49.486;10.792;2023-03-04T18:03:03;19.52;;;7.43;;
44995;SDS011;30729;49.486;10.792;2023-03-04T18:06:27;22.17;;;7.45;;
44995;SDS011;30729;49.486;10.792;2023-03-04T18:09:52;15.38;;;6.80;;
44995;SDS011;30729;49.486;10.792;2023-03-04T18:13:17;22.00;;;7.53;;
44995;SDS011;30729;49.486;10.792;2023-03-04T18:16:40;16.52;;;7.28;;
44995;SDS011;30729;49.486;10.792;2023-03-04T18:20:06;19.50;;;7.93;;
44995;SDS011;30729;49.486;10.792;2023-03-04T18:23:30;20.83;;;7.70;;
44995;SDS011;30729;49.486;10.792;2023-03-04T18:26:54;20.40;;;7.90;;
44995;SDS011;30729;49.486;10.792;2023-03-04T18:30:18;17.80;;;7.55;;
44995;SDS011;30729;49.486;10.792;2023-03-04T18:33:47;23.77;;;8.27;;
44995;SDS011;30729;49.486;10.792;2023-03-04T18:37:11;21.15;;;7.07;;
44995;SDS011;30729;49.486;10.792;2023-03-04T18:40:37;20.25;;;7.95;;
44995;SDS011;30729;49.486;10.792;2023-03-04T18:44:01;20.92;;;6.90;;
44995;SDS011;30729;49.486;10.792;2023-03-04T18:47:25;18.10;;;7.88;;
44995;SDS011;30729;49.486;10.792;2023-03-04T18:50:49;16.17;;;7.63;;
44995;SDS011;30729;49.486;10.792;2023-03-04T18:54:13;17.77;;;7.78;;
44995;SDS011;30729;49.486;10.792;2023-03-04T18:57:38;18.52;;;7.47;;
44995;SDS011;30729;49.486;10.792;2023-03-04T19:01:05;16.95;;;6.30;;
44995;SDS011;30729;49.486;10.792;2023-03-04T19:04:34;15.07;;;6.07;;
44995;SDS011;30729;49.486;10.792;2023-03-04T19:07:59;21.15;;;7.32;;
44995;SDS011;30729;49.486;10.792;2023-03-04T19:11:24;18.70;;;7.95;;
44995;SDS011;30729;49.486;10.792;2023-03-04T19:14:48;18.48;;;6.88;;
44995;SDS011;30729;49.486;10.792;2023-03-04T19:18:13;19.38;;;7.35;;
44995;SDS011;30729;49.486;10.792;2023-03-04T19:21:39;17.10;;;7.78;;
44995;SDS011;30729;49.486;10.792;2023-03-04T19:25:03;18.13;;;7.60;;
44995;SDS011;30729;49.486;10.792;2023-03-04T19:28:29;19.80;;;7.38;;
44995;SDS011;30729;49.486;10.792;2023-03-04T19:31:53;23.15;;;7.28;;
44995;SDS011;30729;49.486;10.792;2023-03-04T19:35:19;20.73;;;7.30;;
44995;SDS011;30729;49.486;10.792;2023-03-04T19:38:43;19.25;;;7.60;;
44995;SDS011;30729;49.486;10.792;2023-03-04T19:42:07;16.52;;;6.43;;
44995;SDS011;30729;49.486;10.792;2023-03-04T19:45:32;22.98;;;7.38;;
44995;SDS011;30729;49.486;10.792;2023-03-04T19:48:56;18.05;;;6.68;;
44995;SDS011;30729;49.486;10.792;2023-03-04T19:52:20;17.40;;;7.50;;
44995;SDS011;30729;49.486;10.792;2023-03-04T19:55:44;19.67;;;7.30;;
44995;SDS011;30729;49.486;10.792;2023-03-04T19:59:08;20.45;;;8.25;;
44995;SDS011;30729;49.486;10.792;2023-03-04T20:02:33;17.08;;;7.10;;
44995;SDS011;30729;49.486;10.792;2023-03-04T20:06:04;19.00;;;7.38;;
44995;SDS011;30729;49.486;10.792;2023-03-04T20:09:28;18.23;;;7.63;;
44995;SDS011;30729;49.486;10.792;2023-03-04T20:12:56;19.08;;;8.45;;
44995;SDS011;30729;49.486;10.792;2023-03-04T20:16:22;15.75;;;6.88;;
44995;SDS011;30729;49.486;10.792;2023-03-04T20:19:47;20.50;;;8.00;;
44995;SDS011;30729;49.486;10.792;2023-03-04T20:23:12;18.65;;;8.10;;
44995;SDS011;30729;49.486;10.792;2023-03-04T20:26:36;18.58;;;8.05;;
44995;SDS011;30729;49.486;10.792;2023-03-04T20:30:00;24.73;;;8.80;;
44995;SDS011;30729;49.486;10.792;2023-03-04T20:33:55;19.17;;;7.47;;
44995;SDS011;30729;49.486;10.792;2023-03-04T20:37:21;25.35;;;8.13;;
44995;SDS011;30729;49.486;10.792;2023-03-04T20:40:45;20.95;;;8.20;;
44995;SDS011;30729;49.486;10.792;2023-03-04T20:44:09;20.48;;;9.20;;
44995;SDS011;30729;49.486;10.792;2023-03-04T20:47:33;18.98;;;8.23;;
44995;SDS011;30729;49.486;10.792;2023-03-04T20:50:57;24.23;;;8.82;;
44995;SDS011;30729;49.486;10.792;2023-03-04T20:54:27;21.70;;;9.43;;
44995;SDS011;30729;49.486;10.792;2023-03-04T20:57:52;20.83;;;7.60;;
44995;SDS011;30729;49.486;10.792;2023-03-04T21:01:16;18.73;;;8.23;;
44995;SDS011;30729;49.486;10.792;2023-03-04T21:04:42;25.40;;;9.85;;
44995;SDS011;30729;49.486;10.792;2023-03-04T21:08:06;21.05;;;9.95;;
44995;SDS011;30729;49.486;10.792;2023-03-04T21:11:31;25.92;;;9.57;;
44995;SDS011;30729;49.486;10.792;2023-03-04T21:14:55;22.25;;;9.43;;
44995;SDS011;30729;49.486;10.792;2023-03-04T21:18:19;28.83;;;10.20;;
44995;SDS011;30729;49.486;10.792;2023-03-04T21:21:45;23.40;;;10.15;;
44995;SDS011;30729;49.486;10.792;2023-03-04T21:25:09;24.83;;;10.73;;
44995;SDS011;30729;49.486;10.792;2023-03-04T21:28:33;29.95;;;12.45;;
44995;SDS011;30729;49.486;10.792;2023-03-04T21:31:58;23.60;;;10.95;;
44995;SDS011;30729;49.486;10.792;2023-03-04T21:35:22;25.92;;;11.00;;
44995;SDS011;30729;49.486;10.792;2023-03-04T21:38:47;22.17;;;10.07;;
44995;SDS011;30729;49.486;10.792;2023-03-04T21:42:11;28.95;;;11.57;;
44995;SDS011;30729;49.486;10.792;2023-03-04T21:45:35;28.67;;;13.20;;
44995;SDS011;30729;49.486;10.792;2023-03-04T21:48:59;27.98;;;12.80;;
44995;SDS011;30729;49.486;10.792;2023-03-04T21:52:24;28.77;;;11.65;;
44995;SDS011;30729;49.486;10.792;2023-03-04T21:55:48;25.70;;;10.80;;
44995;SDS011;30729;49.486;10.792;2023-03-04T21:59:13;26.17;;;11.75;;
44995;SDS011;30729;49.486;10.792;2023-03-04T22:02:38;28.20;;;12.32;;